Time;durP1;ratioP1;P1;durP2;ratioP2;P2;SDS_P1;SDS_P2;PMS_P1;PMS_P2;Temp;Humidity;BMP_temperature;BMP_pressure;BME280_temperature;BME280_humidity;BME280_pressure;Samples;Min_cycle;Max_cycle;Signal;HPM_P1;HPM_P2
2022/06/07 00:00:31;;;;;;;8.02;4.78;;;20.30;99.90;;;;;;4916631;29;20369;-80
2022/06/07 00:02:57;;;;;;;9.75;5.13;;;20.30;99.90;;;;;;4915779;29;20028;-81
2022/06/07 00:05:22;;;;;;;9.73;5.03;;;20.30;99.90;;;;;;4902373;29;20536;-81
2022/06/07 00:07:49;;;;;;;9.90;5.05;;;20.20;99.90;;;;;;4898744;29;20089;-81
2022/06/07 00:10:15;;;;;;;9.30;5.00;;;20.10;99.90;;;;;;4900115;29;20024;-81
2022/06/07 00:12:41;;;;;;;7.55;4.82;;;20.10;99.90;;;;;;4900566;29;20033;-81
2022/06/07 00:15:08;;;;;;;9.15;5.22;;;20.20;99.90;;;;;;4901055;29;20097;-80
2022/06/07 00:17:34;;;;;;;7.80;5.13;;;20.10;99.90;;;;;;4901316;29;20029;-81
2022/06/07 00:19:59;;;;;;;9.60;5.40;;;20.10;99.90;;;;;;4900622;29;20571;-81
2022/06/07 00:22:25;;;;;;;9.05;5.55;;;20.10;99.90;;;;;;4900124;29;20561;-80
2022/06/07 00:24:51;;;;;;;9.90;5.40;;;20.10;99.90;;;;;;4901237;29;20035;-80
2022/06/07 00:27:16;;;;;;;11.75;6.45;;;20.00;99.90;;;;;;4901180;29;20465;-80
2022/06/07 00:29:44;;;;;;;13.00;6.30;;;20.00;99.90;;;;;;4901236;29;20016;-81
2022/06/07 00:32:10;;;;;;;8.45;6.03;;;20.00;99.90;;;;;;4900566;29;20055;-80
2022/06/07 00:34:36;;;;;;;13.10;5.07;;;19.90;99.90;;;;;;4900713;29;20029;-80
2022/06/07 00:37:02;;;;;;;13.30;5.95;;;20.00;99.90;;;;;;4900986;29;20040;-81
2022/06/07 00:39:28;;;;;;;10.43;5.65;;;19.90;99.90;;;;;;4901044;29;20024;-81
2022/06/07 00:41:54;;;;;;;13.43;5.55;;;19.90;99.90;;;;;;4899872;29;20029;-81
2022/06/07 00:44:25;;;;;;;15.30;5.32;;;19.90;99.90;;;;;;4900717;29;20048;-81
2022/06/07 00:46:54;;;;;;;8.25;4.65;;;19.80;99.90;;;;;;4900643;29;20043;-81
2022/06/07 00:49:22;;;;;;;10.45;5.07;;;19.80;99.90;;;;;;4915297;29;20032;-80
2022/06/07 00:51:48;;;;;;;12.82;5.43;;;19.70;99.90;;;;;;4918495;29;20084;-80
2022/06/07 00:54:25;;;;;;;8.07;5.00;;;19.60;99.90;;;;;;4919519;29;20028;-80
2022/06/07 00:56:51;;;;;;;11.00;5.38;;;19.60;99.90;;;;;;4919446;29;20036;-81
2022/06/07 00:59:17;;;;;;;9.90;5.40;;;19.50;99.90;;;;;;4919620;29;20100;-81
2022/06/07 01:01:43;;;;;;;11.57;4.90;;;19.60;99.90;;;;;;4919194;29;20035;-80
2022/06/07 01:04:09;;;;;;;9.60;5.07;;;19.60;99.90;;;;;;4914652;29;20048;-80
2022/06/07 01:12:05;;;;;;;6.72;4.03;;;19.50;99.90;;;;;;4900166;29;20043;-80
2022/06/07 01:14:30;;;;;;;5.95;4.50;;;19.50;99.90;;;;;;4900571;29;20497;-80
2022/06/07 01:16:56;;;;;;;8.98;4.30;;;19.50;99.90;;;;;;4899710;29;20036;-80
2022/06/07 01:19:22;;;;;;;7.28;4.40;;;19.50;99.90;;;;;;4899417;29;20028;-80
2022/06/07 01:21:48;;;;;;;9.32;4.93;;;19.40;99.90;;;;;;4898941;29;20025;-80
2022/06/07 01:24:15;;;;;;;8.57;4.13;;;19.40;99.90;;;;;;4900131;29;20032;-81
2022/06/07 01:26:41;;;;;;;5.80;4.13;;;19.40;99.90;;;;;;4899915;29;20088;-80
2022/06/07 01:29:07;;;;;;;7.53;4.25;;;19.40;99.90;;;;;;4900059;29;20032;-81
2022/06/07 01:31:33;;;;;;;7.43;4.57;;;19.30;99.90;;;;;;4899604;29;20087;-80
2022/06/07 01:33:59;;;;;;;12.25;5.05;;;19.40;99.90;;;;;;4899885;29;20107;-80
2022/06/07 01:36:25;;;;;;;14.50;4.78;;;19.40;99.90;;;;;;4899962;29;20056;-80
2022/06/07 01:44:19;;;;;;;9.85;3.58;;;19.30;99.90;;;;;;4918079;29;20080;-80
2022/06/07 01:46:45;;;;;;;9.40;4.60;;;19.30;99.90;;;;;;4916238;29;20447;-80
2022/06/07 01:49:10;;;;;;;5.25;4.10;;;19.30;99.90;;;;;;4899689;29;20101;-81
2022/06/07 01:51:36;;;;;;;6.25;4.20;;;19.20;99.90;;;;;;4899563;29;20560;-81
2022/06/07 01:54:01;;;;;;;6.60;4.00;;;19.20;99.90;;;;;;4899438;29;20048;-81
2022/06/07 01:56:28;;;;;;;8.23;4.28;;;19.20;99.90;;;;;;4899355;29;20063;-80
2022/06/07 01:58:54;;;;;;;7.03;3.67;;;19.10;99.90;;;;;;4899549;29;20021;-81
2022/06/07 02:01:19;;;;;;;8.63;3.83;;;19.10;99.90;;;;;;4897982;29;20029;-81
2022/06/07 02:03:45;;;;;;;6.10;3.83;;;19.10;99.90;;;;;;4899913;29;20572;-81
2022/06/07 02:06:12;;;;;;;5.68;3.95;;;19.10;99.90;;;;;;4918064;29;20457;-80
2022/06/07 02:08:40;;;;;;;10.40;3.90;;;19.00;99.90;;;;;;4917877;29;20118;-81
2022/06/07 02:11:13;;;;;;;5.68;4.00;;;19.00;99.90;;;;;;4918139;29;20078;-80
2022/06/07 02:13:39;;;;;;;7.93;4.43;;;19.00;99.90;;;;;;4918140;29;20028;-80
2022/06/07 02:16:06;;;;;;;7.47;4.35;;;18.90;99.90;;;;;;4916150;29;20032;-80
2022/06/07 02:18:32;;;;;;;6.55;4.03;;;19.00;99.90;;;;;;4918036;29;20035;-80
2022/06/07 02:21:00;;;;;;;5.90;3.65;;;18.90;99.90;;;;;;4918215;29;20024;-81
2022/06/07 02:23:26;;;;;;;8.27;4.03;;;18.90;99.90;;;;;;4917905;29;20055;-80
2022/06/07 02:25:56;;;;;;;7.88;4.03;;;18.90;99.90;;;;;;4918055;29;20032;-80
2022/06/07 02:28:26;;;;;;;6.68;4.40;;;18.90;99.90;;;;;;4917736;29;20028;-80
2022/06/07 02:30:53;;;;;;;11.95;3.65;;;18.90;99.90;;;;;;4914541;29;20161;-80
2022/06/07 02:33:20;;;;;;;6.10;4.00;;;18.90;99.90;;;;;;4898870;29;20027;-81
2022/06/07 02:35:45;;;;;;;8.18;4.03;;;18.90;99.90;;;;;;4898756;29;20497;-80
2022/06/07 02:38:12;;;;;;;4.78;3.45;;;18.90;99.90;;;;;;4898846;29;20053;-81
2022/06/07 02:40:38;;;;;;;6.28;3.95;;;18.90;99.90;;;;;;4898647;29;20031;-81
2022/06/07 02:43:04;;;;;;;6.03;3.78;;;18.90;99.90;;;;;;4916183;29;20028;-80
2022/06/07 02:45:30;;;;;;;6.53;4.55;;;18.90;99.90;;;;;;4917240;29;20035;-81
2022/06/07 02:47:56;;;;;;;8.07;4.18;;;18.90;99.90;;;;;;4917578;29;20032;-80
2022/06/07 02:50:22;;;;;;;8.45;3.95;;;18.90;99.90;;;;;;4917376;29;20090;-80
2022/06/07 02:52:48;;;;;;;6.97;4.07;;;18.90;99.90;;;;;;4916173;29;20038;-80
2022/06/07 02:55:15;;;;;;;8.10;4.68;;;18.80;99.90;;;;;;4917327;29;20035;-81
2022/06/07 02:57:41;;;;;;;6.38;4.10;;;18.90;99.90;;;;;;4912773;29;20024;-81
2022/06/07 03:00:09;;;;;;;6.55;3.50;;;18.80;99.90;;;;;;4898197;29;20454;-81
2022/06/07 03:02:35;;;;;;;5.05;3.72;;;18.90;99.90;;;;;;4901549;29;20409;-81
2022/06/07 03:05:02;;;;;;;9.57;4.43;;;18.80;99.90;;;;;;4905840;29;20501;-80
2022/06/07 03:07:27;;;;;;;8.07;3.85;;;18.80;99.90;;;;;;4896582;29;20025;-81
2022/06/07 03:09:53;;;;;;;11.88;4.20;;;18.80;99.90;;;;;;4898444;29;20035;-81
2022/06/07 03:12:18;;;;;;;8.90;4.10;;;18.70;99.90;;;;;;4897826;29;20116;-81
2022/06/07 03:14:44;;;;;;;6.05;4.18;;;18.70;99.90;;;;;;4898144;29;20033;-80
2022/06/07 03:17:10;;;;;;;7.18;3.75;;;18.70;99.90;;;;;;4896583;29;20104;-81
2022/06/07 03:19:36;;;;;;;7.65;3.90;;;18.80;99.90;;;;;;4898108;29;20047;-80
2022/06/07 03:22:02;;;;;;;6.35;3.83;;;18.80;99.90;;;;;;4898081;29;20052;-81
2022/06/07 03:24:27;;;;;;;7.13;4.53;;;18.60;99.90;;;;;;4898136;29;20047;-81
2022/06/07 03:26:54;;;;;;;6.88;3.75;;;18.70;99.90;;;;;;4897539;29;20104;-81
2022/06/07 03:29:20;;;;;;;7.45;3.88;;;18.70;99.90;;;;;;4897871;29;20039;-80
2022/06/07 03:31:46;;;;;;;7.82;4.00;;;18.70;99.90;;;;;;4897785;29;20025;-81
2022/06/07 03:34:12;;;;;;;9.75;4.53;;;18.60;99.90;;;;;;4897840;29;20120;-81
2022/06/07 03:36:38;;;;;;;9.88;3.80;;;18.60;99.90;;;;;;4896435;29;20029;-80
2022/06/07 03:39:08;;;;;;;7.50;4.63;;;18.70;99.90;;;;;;4897936;29;20025;-81
2022/06/07 03:41:35;;;;;;;6.38;3.75;;;18.60;99.90;;;;;;4896238;29;20437;-81
2022/06/07 03:44:01;;;;;;;6.68;4.03;;;18.50;99.90;;;;;;4897513;29;20032;-80
2022/06/07 03:46:28;;;;;;;12.30;4.10;;;18.60;99.90;;;;;;4897555;29;20517;-80
2022/06/07 03:48:55;;;;;;;6.55;3.95;;;18.60;99.90;;;;;;4897782;29;20032;-80
2022/06/07 03:51:24;;;;;;;6.80;3.88;;;18.60;99.90;;;;;;4907243;29;20036;-80
2022/06/07 03:53:50;;;;;;;7.95;3.97;;;18.60;99.90;;;;;;4916418;29;20036;-80
2022/06/07 03:56:18;;;;;;;7.43;3.50;;;18.60;99.90;;;;;;4916196;29;20024;-80
2022/06/07 03:58:44;;;;;;;5.35;3.35;;;18.70;99.90;;;;;;4916477;29;20484;-81
2022/06/07 04:01:15;;;;;;;5.50;3.88;;;18.60;99.90;;;;;;4916611;29;20024;-80
2022/06/07 04:03:51;;;;;;;5.45;3.67;;;18.50;99.90;;;;;;4915997;29;20528;-80
2022/06/07 04:06:20;;;;;;;5.88;3.72;;;18.50;99.90;;;;;;4915848;29;20500;-80
2022/06/07 04:08:46;;;;;;;6.78;3.72;;;18.50;99.90;;;;;;4916413;29;20028;-79
2022/06/07 04:11:14;;;;;;;8.25;4.00;;;18.40;99.90;;;;;;4914974;29;20123;-79
2022/06/07 04:13:40;;;;;;;7.95;3.95;;;18.30;99.90;;;;;;4914952;29;20531;-79
2022/06/07 04:16:10;;;;;;;9.05;3.97;;;18.30;99.90;;;;;;4897694;29;20108;-79
2022/06/07 04:18:36;;;;;;;8.35;3.70;;;18.30;99.90;;;;;;4897424;29;20040;-82
2022/06/07 04:21:02;;;;;;;5.85;4.03;;;18.40;99.90;;;;;;4896204;29;20389;-82
2022/06/07 04:23:27;;;;;;;8.75;3.65;;;18.40;99.90;;;;;;4897230;29;20564;-82
2022/06/07 04:25:53;;;;;;;9.63;4.00;;;18.40;99.90;;;;;;4904578;29;20099;-79
2022/06/07 04:28:19;;;;;;;6.38;3.17;;;18.50;99.90;;;;;;4915252;29;20111;-80
2022/06/07 04:30:47;;;;;;;5.35;3.60;;;18.40;99.90;;;;;;4916580;29;20060;-79
2022/06/07 04:33:15;;;;;;;6.38;3.15;;;18.40;99.90;;;;;;4909788;29;20024;-79
2022/06/07 04:35:45;;;;;;;6.93;3.67;;;18.30;99.90;;;;;;4902154;29;20080;-79
2022/06/07 04:38:11;;;;;;;5.97;3.47;;;18.40;99.90;;;;;;4897259;29;20389;-80
2022/06/07 04:40:42;;;;;;;4.72;3.28;;;18.40;99.90;;;;;;4895654;29;20056;-81
2022/06/07 04:43:09;;;;;;;5.25;3.00;;;18.40;99.90;;;;;;4895924;29;20488;-80
2022/06/07 04:45:37;;;;;;;6.95;3.67;;;18.40;99.90;;;;;;4904122;29;20028;-81
2022/06/07 04:48:04;;;;;;;6.00;3.28;;;18.40;99.90;;;;;;4907743;29;20393;-80
2022/06/07 04:50:29;;;;;;;8.10;3.50;;;18.40;99.90;;;;;;4901943;29;20035;-80
2022/06/07 04:52:55;;;;;;;9.00;3.17;;;18.40;99.90;;;;;;4900205;29;20029;-81
2022/06/07 04:55:20;;;;;;;4.70;3.03;;;18.40;99.90;;;;;;4900360;29;20077;-80
2022/06/07 04:57:46;;;;;;;4.88;2.78;;;18.30;99.90;;;;;;4908063;29;20021;-81
2022/06/07 05:00:18;;;;;;;7.38;2.67;;;18.30;99.90;;;;;;4900561;29;20385;-81
2022/06/07 05:02:44;;;;;;;5.82;2.92;;;18.40;99.90;;;;;;4900820;29;20532;-79
2022/06/07 05:05:12;;;;;;;5.88;2.88;;;18.30;99.90;;;;;;4911102;29;20044;-82
2022/06/07 05:07:39;;;;;;;5.38;3.00;;;18.30;99.90;;;;;;4918638;29;20047;-81
2022/06/07 05:10:11;;;;;;;6.80;2.88;;;18.40;99.90;;;;;;4915358;29;20112;-82
2022/06/07 05:12:37;;;;;;;4.93;2.85;;;18.30;99.90;;;;;;4900137;29;20108;-81
2022/06/07 05:15:05;;;;;;;7.97;3.10;;;18.30;99.90;;;;;;4905795;29;20489;-79
2022/06/07 10:43:03;;;;;;;8.70;2.10;;;20.30;99.90;;;;;;5778035;23;19929;-85
2022/06/07 10:45:37;;;;;;;2.53;1.48;;;20.30;99.90;;;;;;4895860;29;20037;-83
2022/06/07 10:48:16;;;;;;;5.68;2.35;;;20.40;99.90;;;;;;4886401;29;20029;-83
2022/06/07 10:50:53;;;;;;;3.00;1.50;;;20.60;99.90;;;;;;4898772;29;20024;-83
2022/06/07 10:53:39;;;;;;;7.45;2.10;;;20.70;99.90;;;;;;4897688;29;20029;-86
2022/06/07 10:56:39;;;;;;;6.50;2.00;;;20.90;99.90;;;;;;4898170;29;20025;-83
2022/06/07 10:59:21;;;;;;;6.38;2.10;;;21.00;99.90;;;;;;4888725;29;20515;-81
2022/06/07 11:02:03;;;;;;;4.95;2.22;;;21.10;99.90;;;;;;4891646;29;20028;-82
2022/06/07 11:10:26;;;;;;;4.43;1.75;;;21.00;99.90;;;;;;4898290;29;20043;-82
2022/06/07 11:13:17;;;;;;;4.28;1.70;;;21.10;99.90;;;;;;4897951;29;20035;-82
2022/06/07 11:15:54;;;;;;;5.00;1.80;;;21.10;99.90;;;;;;4898295;29;20100;-82
2022/06/07 14:25:34;;;;;;;4.78;1.80;;;23.10;95.00;;;;;;5633583;23;20084;-92
2022/06/07 14:28:00;;;;;;;5.63;1.80;;;23.20;94.80;;;;;;4898160;29;20029;-83
2022/06/07 14:30:26;;;;;;;6.50;1.65;;;23.20;94.50;;;;;;4897113;29;20029;-83
2022/06/07 14:32:55;;;;;;;6.60;1.55;;;23.10;94.70;;;;;;4897238;29;20032;-83
2022/06/07 14:35:29;;;;;;;3.20;1.67;;;23.10;94.50;;;;;;4887396;29;20051;-84
2022/06/07 14:37:58;;;;;;;6.22;1.92;;;23.40;94.50;;;;;;4887917;29;20484;-84
2022/06/07 14:40:36;;;;;;;7.47;2.30;;;23.50;94.30;;;;;;4878872;29;20017;-85
2022/06/07 14:43:03;;;;;;;10.32;2.33;;;23.30;94.40;;;;;;4881367;29;20108;-83
2022/06/07 14:45:37;;;;;;;5.30;1.70;;;23.30;94.90;;;;;;4877922;29;20389;-79
2022/06/07 14:48:05;;;;;;;7.03;1.73;;;23.20;94.50;;;;;;4885314;29;20021;-83
2022/06/07 14:50:31;;;;;;;5.60;2.13;;;23.00;95.10;;;;;;4889370;29;20070;-82
2022/06/07 14:52:58;;;;;;;7.63;2.13;;;23.00;95.50;;;;;;4884854;29;20028;-82
2022/06/07 14:55:25;;;;;;;12.48;2.53;;;23.10;95.50;;;;;;4879112;29;20029;-83
2022/06/07 14:57:52;;;;;;;8.93;1.92;;;23.10;94.20;;;;;;4881098;29;20032;-80
2022/06/07 15:00:20;;;;;;;12.77;2.58;;;22.90;94.80;;;;;;4886695;29;20028;-79
2022/06/07 15:02:53;;;;;;;7.30;1.88;;;23.00;95.00;;;;;;4885979;29;20029;-83
2022/06/07 15:05:27;;;;;;;8.50;1.83;;;22.90;94.50;;;;;;4892493;29;20549;-85
2022/06/07 15:07:56;;;;;;;7.95;2.10;;;22.80;94.70;;;;;;4872286;29;20025;-82
2022/06/07 15:10:26;;;;;;;6.10;1.60;;;22.90;95.00;;;;;;4875816;29;20556;-83
2022/06/07 15:12:52;;;;;;;10.43;2.58;;;23.00;95.80;;;;;;4868899;29;20591;-83
2022/06/07 15:15:18;;;;;;;11.63;2.13;;;22.90;95.30;;;;;;4872154;29;20041;-83
2022/06/07 15:17:54;;;;;;;7.22;2.00;;;22.80;95.40;;;;;;4880968;29;20020;-85
2022/06/07 15:20:34;;;;;;;6.82;2.05;;;22.70;95.70;;;;;;4889764;29;20017;-83
2022/06/07 15:23:02;;;;;;;7.13;2.08;;;22.80;95.20;;;;;;4887649;29;20488;-85
2022/06/07 15:25:30;;;;;;;7.55;2.42;;;22.70;95.00;;;;;;4867861;29;20054;-88
2022/06/07 15:27:55;;;;;;;6.97;2.05;;;22.80;95.50;;;;;;4869425;29;20052;-88
2022/06/07 15:30:22;;;;;;;7.18;1.80;;;22.90;95.20;;;;;;4868470;29;20052;-87
2022/06/07 15:32:48;;;;;;;4.45;1.63;;;23.20;94.80;;;;;;4860924;29;20026;-88
2022/06/07 15:35:26;;;;;;;6.95;1.88;;;23.30;94.20;;;;;;4874965;29;20032;-88
2022/06/07 15:37:52;;;;;;;5.10;1.50;;;23.30;93.90;;;;;;4847102;29;20025;-88
2022/06/07 15:40:20;;;;;;;4.45;1.58;;;23.30;93.60;;;;;;4867687;29;20022;-88
2022/06/07 15:42:47;;;;;;;5.32;1.67;;;23.50;94.00;;;;;;4871066;29;20035;-88
2022/06/07 15:45:37;;;;;;;7.10;1.80;;;23.80;94.00;;;;;;4864951;29;20029;-88
2022/06/07 15:48:02;;;;;;;8.00;1.90;;;24.10;93.80;;;;;;4851676;29;20024;-88
2022/06/07 15:50:30;;;;;;;8.40;1.65;;;24.00;92.60;;;;;;4878796;29;20104;-87
2022/06/07 15:52:57;;;;;;;4.25;1.48;;;23.80;92.20;;;;;;4866572;29;20021;-87
2022/06/07 15:55:23;;;;;;;3.55;1.63;;;24.00;92.40;;;;;;4875186;29;20465;-88
2022/06/07 16:00:33;;;;;;;3.20;1.52;;;23.80;92.40;;;;;;4877900;29;20040;-88
2022/06/07 16:02:59;;;;;;;8.45;1.98;;;23.90;91.80;;;;;;4871918;29;20026;-79
2022/06/07 16:05:24;;;;;;;5.28;1.92;;;24.00;92.10;;;;;;4841665;29;20502;-79
2022/06/07 16:07:50;;;;;;;3.97;1.70;;;24.00;91.80;;;;;;4845790;29;20032;-78
2022/06/07 16:12:52;;;;;;;4.72;1.40;;;23.70;91.70;;;;;;5082142;23;20064;-84
2022/06/07 16:18:06;;;;;;;6.27;1.50;;;23.80;91.80;;;;;;4572771;29;20049;-86
2022/06/07 16:20:33;;;;;;;5.88;1.70;;;23.70;91.40;;;;;;4849826;29;20048;-85
2022/06/07 16:23:03;;;;;;;3.42;1.70;;;23.70;91.10;;;;;;4855021;29;20404;-85
2022/06/07 16:25:30;;;;;;;7.90;2.03;;;23.80;91.40;;;;;;4850661;29;20038;-85
2022/06/07 16:33:28;;;;;;;9.82;1.83;;;23.60;91.30;;;;;;4845451;29;20061;-84
2022/06/07 16:36:00;;;;;;;7.30;1.73;;;23.80;91.80;;;;;;4851642;29;20037;-86
2022/06/07 16:38:30;;;;;;;7.22;2.13;;;23.80;92.00;;;;;;4851006;29;20486;-86
2022/06/07 16:40:59;;;;;;;5.75;1.85;;;23.80;91.40;;;;;;4847914;29;20061;-86
2022/06/07 16:46:12;;;;;;;10.52;1.60;;;23.80;91.20;;;;;;4851899;29;20086;-86
2022/06/07 16:48:39;;;;;;;6.40;1.63;;;23.70;91.30;;;;;;4851656;29;20034;-85
2022/06/07 16:51:05;;;;;;;6.30;1.70;;;23.80;91.40;;;;;;4853526;29;20033;-86
2022/06/07 16:53:32;;;;;;;5.47;1.85;;;24.00;91.30;;;;;;4852621;29;20029;-77
2022/06/07 16:55:58;;;;;;;6.80;1.80;;;24.00;91.10;;;;;;4852276;29;20037;-83
2022/06/07 16:58:25;;;;;;;5.85;1.65;;;24.10;90.60;;;;;;4851488;29;20022;-77
2022/06/07 17:00:52;;;;;;;5.70;1.95;;;24.10;90.90;;;;;;4855184;29;20036;-87
2022/06/07 17:03:18;;;;;;;5.18;1.58;;;24.00;90.10;;;;;;4853852;29;20041;-77
2022/06/07 17:05:45;;;;;;;5.80;1.92;;;23.90;90.30;;;;;;4855072;29;20037;-77
2022/06/07 17:08:13;;;;;;;3.10;1.50;;;23.90;90.00;;;;;;4854580;29;20115;-82
2022/06/07 17:10:39;;;;;;;5.30;1.50;;;23.70;90.30;;;;;;4858219;29;20550;-80
2022/06/07 17:13:06;;;;;;;5.60;1.63;;;23.50;90.30;;;;;;4861969;29;20113;-79
2022/06/07 17:15:32;;;;;;;5.00;1.38;;;23.50;90.40;;;;;;4849005;29;20034;-77
2022/06/07 17:18:00;;;;;;;4.70;1.70;;;23.50;90.40;;;;;;4844180;29;20077;-77
2022/06/07 17:20:26;;;;;;;3.40;1.42;;;23.50;90.30;;;;;;4857701;29;20059;-78
2022/06/07 17:22:52;;;;;;;5.40;1.73;;;23.50;90.20;;;;;;4853964;29;20017;-77
2022/06/07 17:25:17;;;;;;;2.50;1.55;;;23.60;90.50;;;;;;4861615;29;20486;-77
2022/06/07 17:27:45;;;;;;;3.08;1.48;;;23.60;90.10;;;;;;4860974;29;20500;-78
2022/06/07 17:30:12;;;;;;;7.72;1.85;;;23.60;90.00;;;;;;4854222;29;20097;-78
2022/06/07 17:32:38;;;;;;;4.03;1.70;;;23.40;90.40;;;;;;4862930;29;20398;-78
2022/06/07 17:35:11;;;;;;;6.47;1.67;;;23.30;90.40;;;;;;4860948;29;20109;-78
2022/06/07 17:37:36;;;;;;;9.15;1.70;;;23.50;90.20;;;;;;4848289;29;20066;-79
2022/06/07 17:40:08;;;;;;;4.15;1.40;;;23.60;90.40;;;;;;4861927;29;20033;-79
2022/06/07 17:42:34;;;;;;;6.22;1.58;;;23.70;90.00;;;;;;4860927;29;20022;-81
2022/06/07 17:45:00;;;;;;;6.43;1.80;;;23.70;89.40;;;;;;4857606;29;20090;-81
2022/06/07 17:47:25;;;;;;;4.93;1.60;;;23.70;90.00;;;;;;4856002;29;20030;-80
2022/06/07 17:49:51;;;;;;;4.15;1.23;;;23.80;89.30;;;;;;4851850;29;20410;-81
2022/06/07 17:52:17;;;;;;;3.22;1.55;;;23.70;90.20;;;;;;4861646;29;20101;-79
2022/06/07 17:54:44;;;;;;;4.85;1.45;;;23.50;90.00;;;;;;4860188;29;20101;-82
2022/06/07 17:57:10;;;;;;;9.82;1.63;;;23.50;90.00;;;;;;4856761;29;20109;-81
2022/06/07 17:59:36;;;;;;;2.55;1.10;;;23.60;90.00;;;;;;4849612;29;20121;-82
2022/06/07 18:02:03;;;;;;;5.88;1.75;;;23.60;89.50;;;;;;4859907;29;20081;-82
2022/06/07 18:04:29;;;;;;;8.15;2.25;;;23.50;89.40;;;;;;4852043;29;20033;-82
2022/06/07 18:06:54;;;;;;;6.22;1.88;;;23.40;89.50;;;;;;4849568;29;21479;-81
2022/06/07 18:09:20;;;;;;;3.22;1.50;;;23.40;90.00;;;;;;4860943;29;20489;-79
2022/06/07 18:11:46;;;;;;;7.82;1.98;;;23.30;90.00;;;;;;4855777;29;20030;-79
2022/06/07 18:14:11;;;;;;;5.07;1.50;;;23.50;90.00;;;;;;4850803;29;20037;-79
2022/06/07 18:16:39;;;;;;;8.55;1.85;;;23.50;90.00;;;;;;4861170;29;20049;-79
2022/06/07 18:19:06;;;;;;;4.88;1.67;;;23.40;89.80;;;;;;4861223;29;20029;-79
2022/06/07 18:21:34;;;;;;;10.13;2.33;;;23.20;90.20;;;;;;4859088;29;20018;-75
2022/06/07 18:24:00;;;;;;;7.30;1.58;;;23.20;90.30;;;;;;4860879;29;20490;-80
2022/06/07 18:26:26;;;;;;;9.50;1.77;;;23.00;90.70;;;;;;4861111;29;20033;-80
2022/06/07 18:28:52;;;;;;;6.85;2.08;;;23.00;90.90;;;;;;4860949;29;20085;-80
2022/06/07 18:31:35;;;;;;;7.00;1.77;;;22.90;91.10;;;;;;4861241;29;20538;-79
2022/06/07 18:34:06;;;;;;;13.90;2.05;;;22.70;90.40;;;;;;4861076;29;20421;-80
2022/06/07 18:36:32;;;;;;;3.60;1.80;;;22.80;91.00;;;;;;4861299;29;20036;-80
2022/06/07 18:39:00;;;;;;;3.30;1.63;;;22.80;91.10;;;;;;4860674;29;20030;-79
2022/06/07 18:41:26;;;;;;;10.88;1.70;;;22.60;91.40;;;;;;4860573;29;20143;-79
2022/06/07 18:43:53;;;;;;;6.43;1.60;;;22.60;91.20;;;;;;4860659;29;20105;-79
2022/06/07 18:46:21;;;;;;;7.05;1.58;;;22.60;90.90;;;;;;4860454;29;20077;-79
2022/06/07 18:48:47;;;;;;;6.85;1.90;;;22.60;91.00;;;;;;4858850;29;20101;-79
2022/06/07 18:51:14;;;;;;;10.27;2.38;;;22.60;90.90;;;;;;4860938;29;20057;-80
2022/06/07 18:53:41;;;;;;;3.88;1.48;;;22.50;91.30;;;;;;4852653;29;20030;-80
2022/06/07 18:56:09;;;;;;;8.68;2.40;;;22.40;91.50;;;;;;4860927;29;20117;-79
2022/06/07 18:58:37;;;;;;;4.53;1.55;;;22.40;92.00;;;;;;4858845;29;20033;-78
2022/06/07 19:01:09;;;;;;;4.68;1.60;;;22.30;92.10;;;;;;4842558;29;20074;-79
2022/06/07 19:03:34;;;;;;;5.13;1.80;;;22.20;92.30;;;;;;4852856;29;20037;-79
2022/06/07 19:06:00;;;;;;;4.10;1.52;;;22.20;92.40;;;;;;4854702;29;20033;-79
2022/06/07 19:08:26;;;;;;;6.97;2.05;;;22.10;92.40;;;;;;4842562;29;20394;-79
2022/06/07 19:10:53;;;;;;;5.30;1.70;;;22.00;92.70;;;;;;4853454;29;20405;-79
2022/06/07 19:13:19;;;;;;;13.63;1.88;;;21.90;93.40;;;;;;4858834;29;20500;-80
2022/06/07 19:15:45;;;;;;;4.85;1.48;;;21.80;93.50;;;;;;4852329;29;20394;-80
2022/06/07 19:18:15;;;;;;;6.05;2.00;;;21.70;93.80;;;;;;4860131;29;20050;-80
2022/06/07 19:20:43;;;;;;;6.13;1.77;;;21.70;94.10;;;;;;4847976;29;20033;-80
2022/06/07 19:23:08;;;;;;;4.93;1.40;;;21.60;94.10;;;;;;4854475;29;20030;-79
2022/06/07 19:25:34;;;;;;;6.05;2.08;;;21.60;94.80;;;;;;4848973;29;20509;-80
2022/06/07 19:28:00;;;;;;;3.33;1.23;;;21.50;95.10;;;;;;4858042;29;20117;-78
2022/06/07 19:30:27;;;;;;;4.93;1.75;;;21.40;95.40;;;;;;4846967;29;20492;-82
2022/06/07 19:32:53;;;;;;;4.30;1.85;;;21.30;95.90;;;;;;4847453;29;20034;-79
2022/06/07 19:35:29;;;;;;;5.47;1.80;;;21.20;96.10;;;;;;4851133;29;20382;-78
2022/06/07 19:37:55;;;;;;;4.55;1.42;;;21.20;96.60;;;;;;4847246;29;20482;-79
2022/06/07 19:40:21;;;;;;;5.85;1.75;;;21.10;96.80;;;;;;4845665;29;20036;-79
2022/06/07 19:42:49;;;;;;;3.72;1.50;;;21.00;96.60;;;;;;4854022;29;20108;-79
2022/06/07 19:45:19;;;;;;;8.75;1.83;;;20.90;97.30;;;;;;4855597;29;20030;-79
2022/06/07 19:47:45;;;;;;;3.25;1.88;;;20.70;97.30;;;;;;4847984;29;20052;-78
2022/06/07 19:50:11;;;;;;;4.78;1.80;;;20.60;97.60;;;;;;4850074;29;20113;-78
2022/06/07 19:52:39;;;;;;;5.13;1.63;;;20.50;97.60;;;;;;4851977;29;20111;-79
2022/06/07 19:55:07;;;;;;;7.10;1.52;;;20.50;97.70;;;;;;4850965;29;20030;-78
2022/06/07 19:57:34;;;;;;;3.28;1.70;;;20.40;97.80;;;;;;4851947;29;20038;-78
2022/06/07 20:00:00;;;;;;;6.10;1.80;;;20.50;98.00;;;;;;4857193;29;20110;-78
2022/06/07 20:02:25;;;;;;;3.83;1.80;;;20.40;97.90;;;;;;4849412;29;20684;-79
2022/06/07 20:04:51;;;;;;;3.25;1.73;;;20.40;98.30;;;;;;4849624;29;20038;-78
2022/06/07 20:07:17;;;;;;;2.83;1.60;;;20.40;98.50;;;;;;4850640;29;20041;-78
2022/06/07 20:09:45;;;;;;;9.23;2.25;;;20.30;98.50;;;;;;4852222;29;20040;-78
2022/06/07 20:12:10;;;;;;;5.20;1.80;;;20.20;98.90;;;;;;4850866;29;20029;-78
2022/06/07 20:14:36;;;;;;;3.33;1.63;;;20.20;99.00;;;;;;4849387;29;20534;-78
2022/06/07 20:17:03;;;;;;;8.70;1.67;;;20.20;98.80;;;;;;4848635;29;20074;-78
2022/06/07 20:19:29;;;;;;;4.15;1.73;;;20.10;98.90;;;;;;4859442;29;20021;-78
2022/06/07 20:21:55;;;;;;;7.20;1.90;;;20.10;99.00;;;;;;4860462;29;20033;-78
2022/06/07 20:24:21;;;;;;;6.20;1.90;;;20.00;99.40;;;;;;4858012;29;20029;-79
2022/06/07 20:26:47;;;;;;;4.55;1.83;;;19.90;99.40;;;;;;4852636;29;20029;-78
2022/06/07 20:29:12;;;;;;;5.05;2.33;;;19.90;99.80;;;;;;4845439;29;20397;-79
2022/06/07 20:31:38;;;;;;;6.55;2.10;;;19.80;99.20;;;;;;4853335;29;20036;-78
2022/06/07 20:34:05;;;;;;;4.00;2.00;;;19.80;99.40;;;;;;4845236;29;20112;-79
2022/06/07 20:36:30;;;;;;;4.60;2.38;;;19.90;99.70;;;;;;4858936;29;20054;-79
2022/06/07 20:38:56;;;;;;;5.85;2.65;;;19.80;99.70;;;;;;4863116;29;20390;-78
2022/06/07 20:41:22;;;;;;;5.18;2.13;;;19.80;99.90;;;;;;4863160;29;20022;-78
2022/06/07 20:43:48;;;;;;;5.40;1.98;;;19.70;99.90;;;;;;4862731;29;20025;-79
2022/06/07 20:46:13;;;;;;;6.60;1.92;;;19.80;99.90;;;;;;4856907;29;20030;-79
2022/06/07 20:48:39;;;;;;;7.80;2.35;;;19.70;99.90;;;;;;4862423;29;20133;-79
2022/06/07 20:51:05;;;;;;;4.13;1.98;;;19.70;99.90;;;;;;4862627;29;20029;-79
2022/06/07 20:53:31;;;;;;;5.03;2.15;;;19.70;99.90;;;;;;4862523;29;20052;-79
2022/06/07 20:56:01;;;;;;;4.15;2.15;;;19.80;99.90;;;;;;4862696;29;20474;-79
2022/06/07 20:58:28;;;;;;;4.38;2.13;;;19.70;99.90;;;;;;4862403;29;20094;-79
2022/06/07 21:00:54;;;;;;;6.25;2.10;;;19.70;99.90;;;;;;4862933;29;20032;-79
2022/06/07 21:03:20;;;;;;;5.22;2.15;;;19.60;99.90;;;;;;4862499;29;20443;-79
2022/06/07 21:05:46;;;;;;;7.93;2.00;;;19.50;99.90;;;;;;4862520;29;20405;-79
2022/06/07 21:08:12;;;;;;;4.47;2.33;;;19.40;99.90;;;;;;4862146;29;20324;-79
2022/06/07 21:10:39;;;;;;;5.80;2.20;;;19.30;99.90;;;;;;4862313;29;20022;-79
2022/06/07 21:13:05;;;;;;;8.15;2.03;;;19.40;99.90;;;;;;4861517;29;20486;-79
2022/06/07 21:15:30;;;;;;;6.53;2.10;;;19.40;99.90;;;;;;4862403;29;20368;-79
2022/06/07 21:17:56;;;;;;;5.47;2.08;;;19.40;99.90;;;;;;4862051;29;20061;-79
2022/06/07 21:20:28;;;;;;;7.30;2.50;;;19.40;99.90;;;;;;4861913;29;20037;-79
2022/06/07 21:22:54;;;;;;;4.10;2.13;;;19.40;99.90;;;;;;4861324;29;20470;-78
2022/06/07 21:25:21;;;;;;;5.00;2.22;;;19.40;99.90;;;;;;4861600;29;20018;-78
2022/06/07 21:27:47;;;;;;;8.68;3.60;;;19.40;99.90;;;;;;4861723;29;20029;-79
2022/06/07 21:30:19;;;;;;;9.55;3.13;;;19.40;99.90;;;;;;4842606;29;20045;-79
2022/06/07 21:32:44;;;;;;;;;;;19.40;99.90;;;;;;4844025;29;20114;-79
2022/06/07 21:35:10;;;;;;;6.53;2.38;;;19.40;99.90;;;;;;4843529;29;20430;-79
2022/06/07 21:37:36;;;;;;;6.90;2.40;;;19.40;99.90;;;;;;4840999;29;20038;-79
2022/06/07 21:40:03;;;;;;;5.25;2.75;;;19.40;99.90;;;;;;4859170;29;20098;-79
2022/06/07 21:42:29;;;;;;;8.25;3.25;;;19.30;99.90;;;;;;4861874;29;20033;-78
2022/06/07 21:44:55;;;;;;;7.60;3.25;;;19.30;99.90;;;;;;4861769;29;20025;-79
2022/06/07 21:47:20;;;;;;;10.50;5.32;;;19.30;99.90;;;;;;4861805;29;20516;-79
2022/06/07 21:49:46;;;;;;;13.95;5.88;;;19.40;99.90;;;;;;4862017;29;20148;-78
2022/06/07 21:52:12;;;;;;;10.05;4.18;;;19.30;99.90;;;;;;4861863;29;20036;-79